sensor_id;sensor_type;location;lat;lon;timestamp;pressure;altitude;pressure_sealevel;temperature;humidity
62418;BME280;48456;54.242;10.280;2023-03-01T00:00:05;103008.44;;;-2.42;100.00
62418;BME280;48456;54.242;10.280;2023-03-01T00:02:33;103013.47;;;-2.44;100.00
62418;BME280;48456;54.242;10.280;2023-03-01T00:04:59;103020.47;;;-2.43;100.00
62418;BME280;48456;54.242;10.280;2023-03-01T00:07:25;103015.16;;;-2.44;100.00
62418;BME280;48456;54.242;10.280;2023-03-01T00:09:52;103005.56;;;-2.45;100.00
62418;BME280;48456;54.242;10.280;2023-03-01T00:12:18;103006.50;;;-2.45;100.00
62418;BME280;48456;54.242;10.280;2023-03-01T00:14:44;103009.97;;;-2.44;100.00
62418;BME280;48456;54.242;10.280;2023-03-01T00:17:11;103004.13;;;-2.42;100.00
62418;BME280;48456;54.242;10.280;2023-03-01T00:19:37;103004.00;;;-2.43;100.00
62418;BME280;48456;54.242;10.280;2023-03-01T00:22:03;103003.91;;;-2.45;100.00
62418;BME280;48456;54.242;10.280;2023-03-01T00:24:30;103008.81;;;-2.48;100.00
62418;BME280;48456;54.242;10.280;2023-03-01T00:26:56;103014.66;;;-2.51;100.00
62418;BME280;48456;54.242;10.280;2023-03-01T00:29:23;103018.00;;;-2.52;100.00
62418;BME280;48456;54.242;10.280;2023-03-01T00:31:49;103015.03;;;-2.56;100.00
62418;BME280;48456;54.242;10.280;2023-03-01T00:34:16;103013.22;;;-2.57;100.00
62418;BME280;48456;54.242;10.280;2023-03-01T00:36:42;103009.72;;;-2.58;100.00
62418;BME280;48456;54.242;10.280;2023-03-01T00:39:10;103011.50;;;-2.57;100.00
62418;BME280;48456;54.242;10.280;2023-03-01T00:41:37;103016.44;;;-2.60;100.00
62418;BME280;48456;54.242;10.280;2023-03-01T00:44:04;103015.25;;;-2.64;100.00
62418;BME280;48456;54.242;10.280;2023-03-01T00:46:30;103016.94;;;-2.64;100.00
62418;BME280;48456;54.242;10.280;2023-03-01T00:48:57;103023.69;;;-2.66;100.00
62418;BME280;48456;54.242;10.280;2023-03-01T00:51:25;103023.56;;;-2.68;100.00
62418;BME280;48456;54.242;10.280;2023-03-01T00:53:52;103022.78;;;-2.67;100.00
62418;BME280;48456;54.242;10.280;2023-03-01T00:56:19;103014.88;;;-2.68;100.00
62418;BME280;48456;54.242;10.280;2023-03-01T00:58:46;103008.00;;;-2.68;100.00
62418;BME280;48456;54.242;10.280;2023-03-01T01:03:44;102999.84;;;-2.72;100.00
62418;BME280;48456;54.242;10.280;2023-03-01T01:06:14;103002.44;;;-2.72;100.00
62418;BME280;48456;54.242;10.280;2023-03-01T01:08:41;102999.06;;;-2.71;100.00
62418;BME280;48456;54.242;10.280;2023-03-01T01:11:08;102998.28;;;-2.70;100.00
62418;BME280;48456;54.242;10.280;2023-03-01T01:13:35;102997.38;;;-2.71;100.00
62418;BME280;48456;54.242;10.280;2023-03-01T01:16:01;102997.78;;;-2.66;100.00
62418;BME280;48456;54.242;10.280;2023-03-01T01:18:27;102984.72;;;-2.57;100.00
62418;BME280;48456;54.242;10.280;2023-03-01T01:20:54;102984.03;;;-2.44;100.00
62418;BME280;48456;54.242;10.280;2023-03-01T01:23:20;102980.69;;;-2.33;100.00
62418;BME280;48456;54.242;10.280;2023-03-01T01:25:46;102982.63;;;-2.30;100.00
62418;BME280;48456;54.242;10.280;2023-03-01T01:28:13;102978.59;;;-2.27;100.00
62418;BME280;48456;54.242;10.280;2023-03-01T01:30:39;102982.22;;;-2.25;100.00
62418;BME280;48456;54.242;10.280;2023-03-01T01:33:05;102979.88;;;-2.22;100.00
62418;BME280;48456;54.242;10.280;2023-03-01T01:35:32;102968.97;;;-2.17;100.00
62418;BME280;48456;54.242;10.280;2023-03-01T01:37:58;102971.97;;;-2.13;100.00
62418;BME280;48456;54.242;10.280;2023-03-01T01:40:24;102984.16;;;-2.12;100.00
62418;BME280;48456;54.242;10.280;2023-03-01T01:42:51;102979.88;;;-2.11;100.00
62418;BME280;48456;54.242;10.280;2023-03-01T01:48:07;102975.09;;;-2.06;100.00
62418;BME280;48456;54.242;10.280;2023-03-01T01:50:36;102968.31;;;-2.04;100.00
62418;BME280;48456;54.242;10.280;2023-03-01T01:53:16;102970.91;;;-2.04;100.00
62418;BME280;48456;54.242;10.280;2023-03-01T01:55:44;102979.63;;;-2.04;100.00
62418;BME280;48456;54.242;10.280;2023-03-01T01:58:13;102966.78;;;-2.02;100.00
62418;BME280;48456;54.242;10.280;2023-03-01T02:00:40;102969.38;;;-2.02;100.00
62418;BME280;48456;54.242;10.280;2023-03-01T02:03:08;102969.38;;;-2.02;100.00
62418;BME280;48456;54.242;10.280;2023-03-01T02:05:44;102965.84;;;-2.03;100.00
62418;BME280;48456;54.242;10.280;2023-03-01T02:08:20;102949.38;;;-2.03;100.00
62418;BME280;48456;54.242;10.280;2023-03-01T02:10:49;102958.22;;;-2.01;100.00
62418;BME280;48456;54.242;10.280;2023-03-01T02:13:16;102959.00;;;-2.02;100.00
62418;BME280;48456;54.242;10.280;2023-03-01T02:15:42;102958.06;;;-2.03;100.00
62418;BME280;48456;54.242;10.280;2023-03-01T02:18:11;102955.34;;;-2.04;100.00
62418;BME280;48456;54.242;10.280;2023-03-01T02:20:54;102953.69;;;-2.04;100.00
62418;BME280;48456;54.242;10.280;2023-03-01T02:23:24;102949.16;;;-2.06;100.00
62418;BME280;48456;54.242;10.280;2023-03-01T02:26:35;102942.78;;;-2.10;100.00
62418;BME280;48456;54.242;10.280;2023-03-01T02:28:42;102939.41;;;-2.09;100.00
62418;BME280;48456;54.242;10.280;2023-03-01T02:31:09;102945.13;;;-2.13;100.00
62418;BME280;48456;54.242;10.280;2023-03-01T02:33:55;102936.72;;;-2.21;100.00
62418;BME280;48456;54.242;10.280;2023-03-01T02:36:23;102936.44;;;-2.24;100.00
62418;BME280;48456;54.242;10.280;2023-03-01T02:38:51;102935.56;;;-2.25;100.00
62418;BME280;48456;54.242;10.280;2023-03-01T02:41:19;102927.91;;;-2.23;100.00
62418;BME280;48456;54.242;10.280;2023-03-01T02:43:46;102927.00;;;-2.24;100.00
62418;BME280;48456;54.242;10.280;2023-03-01T02:46:21;102924.28;;;-2.25;100.00
62418;BME280;48456;54.242;10.280;2023-03-01T02:48:49;102917.00;;;-2.29;100.00
62418;BME280;48456;54.242;10.280;2023-03-01T02:51:22;102910.56;;;-2.35;100.00
62418;BME280;48456;54.242;10.280;2023-03-01T02:56:27;102918.59;;;-2.42;100.00
62418;BME280;48456;54.242;10.280;2023-03-01T02:58:55;102918.88;;;-2.49;100.00
62418;BME280;48456;54.242;10.280;2023-03-01T03:01:27;102925.47;;;-2.53;100.00
62418;BME280;48456;54.242;10.280;2023-03-01T03:04:03;102921.88;;;-2.55;100.00
62418;BME280;48456;54.242;10.280;2023-03-01T03:06:30;102919.91;;;-2.57;100.00
62418;BME280;48456;54.242;10.280;2023-03-01T03:08:57;102920.03;;;-2.56;100.00
62418;BME280;48456;54.242;10.280;2023-03-01T03:11:23;102920.16;;;-2.54;100.00
62418;BME280;48456;54.242;10.280;2023-03-01T03:13:50;102924.44;;;-2.55;100.00
62418;BME280;48456;54.242;10.280;2023-03-01T03:16:18;102918.34;;;-2.55;100.00
62418;BME280;48456;54.242;10.280;2023-03-01T03:18:45;102911.50;;;-2.55;100.00
62418;BME280;48456;54.242;10.280;2023-03-01T03:21:11;102910.72;;;-2.54;100.00
62418;BME280;48456;54.242;10.280;2023-03-01T03:23:38;102922.75;;;-2.54;100.00
62418;BME280;48456;54.242;10.280;2023-03-01T03:26:05;102915.88;;;-2.54;100.00
62418;BME280;48456;54.242;10.280;2023-03-01T03:28:32;102908.13;;;-2.54;100.00
62418;BME280;48456;54.242;10.280;2023-03-01T03:30:59;102902.69;;;-2.46;100.00
62418;BME280;48456;54.242;10.280;2023-03-01T03:33:30;102894.91;;;-2.46;100.00
62418;BME280;48456;54.242;10.280;2023-03-01T03:35:56;102902.91;;;-2.43;100.00
62418;BME280;48456;54.242;10.280;2023-03-01T03:38:23;102893.06;;;-2.48;100.00
62418;BME280;48456;54.242;10.280;2023-03-01T03:40:50;102889.59;;;-2.48;100.00
62418;BME280;48456;54.242;10.280;2023-03-01T03:43:18;102886.19;;;-2.47;100.00
62418;BME280;48456;54.242;10.280;2023-03-01T03:45:45;102887.34;;;-2.43;100.00
62418;BME280;48456;54.242;10.280;2023-03-01T03:48:12;102879.06;;;-2.39;100.00
62418;BME280;48456;54.242;10.280;2023-03-01T03:50:39;102888.53;;;-2.40;100.00
62418;BME280;48456;54.242;10.280;2023-03-01T03:53:06;102889.19;;;-2.42;100.00
62418;BME280;48456;54.242;10.280;2023-03-01T03:55:33;102884.28;;;-2.50;100.00
62418;BME280;48456;54.242;10.280;2023-03-01T03:58:01;102885.56;;;-2.55;100.00
62418;BME280;48456;54.242;10.280;2023-03-01T04:00:34;102887.78;;;-2.59;100.00
62418;BME280;48456;54.242;10.280;2023-03-01T04:03:01;102887.78;;;-2.59;100.00
62418;BME280;48456;54.242;10.280;2023-03-01T04:05:28;102898.53;;;-2.65;100.00
62418;BME280;48456;54.242;10.280;2023-03-01T04:07:54;102885.34;;;-2.68;100.00
62418;BME280;48456;54.242;10.280;2023-03-01T04:10:28;102879.75;;;-2.73;100.00
62418;BME280;48456;54.242;10.280;2023-03-01T04:12:54;102883.63;;;-2.68;100.00
62418;BME280;48456;54.242;10.280;2023-03-01T04:15:22;102878.44;;;-2.68;100.00
62418;BME280;48456;54.242;10.280;2023-03-01T04:17:50;102877.44;;;-2.70;100.00
62418;BME280;48456;54.242;10.280;2023-03-01T04:20:18;102882.84;;;-2.67;100.00
62418;BME280;48456;54.242;10.280;2023-03-01T04:22:56;102880.78;;;-2.71;100.00
62418;BME280;48456;54.242;10.280;2023-03-01T04:25:23;102878.97;;;-2.72;100.00
62418;BME280;48456;54.242;10.280;2023-03-01T04:27:50;102890.13;;;-2.73;100.00
62418;BME280;48456;54.242;10.280;2023-03-01T04:30:16;102888.69;;;-2.69;100.00
62418;BME280;48456;54.242;10.280;2023-03-01T04:32:43;102889.88;;;-2.66;100.00
62418;BME280;48456;54.242;10.280;2023-03-01T04:35:09;102883.75;;;-2.66;100.00
62418;BME280;48456;54.242;10.280;2023-03-01T04:37:36;102889.72;;;-2.67;100.00
62418;BME280;48456;54.242;10.280;2023-03-01T04:40:02;102893.88;;;-2.69;100.00
62418;BME280;48456;54.242;10.280;2023-03-01T04:42:42;102892.19;;;-2.79;100.00
62418;BME280;48456;54.242;10.280;2023-03-01T04:45:09;102889.22;;;-2.84;100.00
62418;BME280;48456;54.242;10.280;2023-03-01T04:47:40;102887.94;;;-2.89;100.00
62418;BME280;48456;54.242;10.280;2023-03-01T04:50:06;102885.56;;;-2.86;100.00
62418;BME280;48456;54.242;10.280;2023-03-01T04:52:33;102885.56;;;-2.86;100.00
62418;BME280;48456;54.242;10.280;2023-03-01T04:55:00;102880.00;;;-2.80;100.00
62418;BME280;48456;54.242;10.280;2023-03-01T04:57:27;102880.94;;;-2.80;100.00
62418;BME280;48456;54.242;10.280;2023-03-01T04:59:53;102893.47;;;-2.84;100.00
62418;BME280;48456;54.242;10.280;2023-03-01T05:02:19;102891.81;;;-2.84;100.00
62418;BME280;48456;54.242;10.280;2023-03-01T05:04:46;102899.94;;;-2.79;100.00
62418;BME280;48456;54.242;10.280;2023-03-01T05:07:12;102887.66;;;-2.82;100.00
62418;BME280;48456;54.242;10.280;2023-03-01T05:09:45;102893.22;;;-2.88;100.00
62418;BME280;48456;54.242;10.280;2023-03-01T05:12:12;102902.41;;;-2.91;100.00
62418;BME280;48456;54.242;10.280;2023-03-01T05:14:39;102903.44;;;-3.00;100.00
62418;BME280;48456;54.242;10.280;2023-03-01T05:17:06;102895.31;;;-3.04;100.00
62418;BME280;48456;54.242;10.280;2023-03-01T05:19:32;102887.91;;;-3.10;100.00
62418;BME280;48456;54.242;10.280;2023-03-01T05:21:59;102880.78;;;-3.13;100.00
62418;BME280;48456;54.242;10.280;2023-03-01T05:24:29;102880.28;;;-3.08;100.00
62418;BME280;48456;54.242;10.280;2023-03-01T05:26:56;102882.09;;;-3.07;100.00
62418;BME280;48456;54.242;10.280;2023-03-01T05:29:23;102884.28;;;-3.02;100.00
62418;BME280;48456;54.242;10.280;2023-03-01T05:31:54;102881.94;;;-2.98;100.00
62418;BME280;48456;54.242;10.280;2023-03-01T05:34:27;102882.34;;;-2.94;100.00
62418;BME280;48456;54.242;10.280;2023-03-01T05:36:54;102884.81;;;-2.95;100.00
62418;BME280;48456;54.242;10.280;2023-03-01T05:39:21;102881.97;;;-2.88;100.00
62418;BME280;48456;54.242;10.280;2023-03-01T05:41:51;102877.56;;;-2.89;100.00
62418;BME280;48456;54.242;10.280;2023-03-01T05:44:18;102882.63;;;-2.91;100.00
62418;BME280;48456;54.242;10.280;2023-03-01T05:46:44;102878.22;;;-2.92;100.00
62418;BME280;48456;54.242;10.280;2023-03-01T05:49:11;102871.06;;;-2.94;100.00
62418;BME280;48456;54.242;10.280;2023-03-01T05:51:39;102875.22;;;-2.96;100.00
62418;BME280;48456;54.242;10.280;2023-03-01T05:54:06;102880.28;;;-3.08;100.00
62418;BME280;48456;54.242;10.280;2023-03-01T05:56:33;102883.38;;;-3.13;100.00
62418;BME280;48456;54.242;10.280;2023-03-01T05:59:00;102888.28;;;-3.16;100.00
62418;BME280;48456;54.242;10.280;2023-03-01T06:01:27;102884.53;;;-3.19;100.00
62418;BME280;48456;54.242;10.280;2023-03-01T06:03:53;102882.84;;;-3.19;100.00
62418;BME280;48456;54.242;10.280;2023-03-01T06:06:19;102882.19;;;-3.16;100.00
62418;BME280;48456;54.242;10.280;2023-03-01T06:08:46;102884.91;;;-3.15;100.00
62418;BME280;48456;54.242;10.280;2023-03-01T06:11:12;102882.19;;;-3.16;100.00
62418;BME280;48456;54.242;10.280;2023-03-01T06:13:38;102883.50;;;-3.21;100.00
62418;BME280;48456;54.242;10.280;2023-03-01T06:16:05;102872.72;;;-3.26;100.00
62418;BME280;48456;54.242;10.280;2023-03-01T06:18:32;102877.78;;;-3.28;100.00
62418;BME280;48456;54.242;10.280;2023-03-01T06:20:59;102874.94;;;-3.31;100.00
62418;BME280;48456;54.242;10.280;2023-03-01T06:23:25;102873.13;;;-3.32;100.00
62418;BME280;48456;54.242;10.280;2023-03-01T06:25:51;102876.09;;;-3.27;100.00
62418;BME280;48456;54.242;10.280;2023-03-01T06:28:18;102880.38;;;-3.28;100.00
62418;BME280;48456;54.242;10.280;2023-03-01T06:30:44;102872.84;;;-3.24;100.00
62418;BME280;48456;54.242;10.280;2023-03-01T06:33:11;102872.63;;;-3.28;100.00
62418;BME280;48456;54.242;10.280;2023-03-01T06:35:37;102875.22;;;-3.28;100.00
62418;BME280;48456;54.242;10.280;2023-03-01T06:38:04;102873.66;;;-3.26;100.00
62418;BME280;48456;54.242;10.280;2023-03-01T06:40:31;102881.53;;;-3.24;100.00
62418;BME280;48456;54.242;10.280;2023-03-01T06:42:57;102869.53;;;-3.23;100.00
62418;BME280;48456;54.242;10.280;2023-03-01T06:45:24;102872.63;;;-3.17;100.00
62418;BME280;48456;54.242;10.280;2023-03-01T06:47:50;102864.47;;;-3.11;100.00
62418;BME280;48456;54.242;10.280;2023-03-01T06:50:17;102868.50;;;-3.05;100.00
62418;BME280;48456;54.242;10.280;2023-03-01T06:52:44;102857.09;;;-2.96;100.00
62418;BME280;48456;54.242;10.280;2023-03-01T06:55:11;102869.53;;;-2.92;100.00
62418;BME280;48456;54.242;10.280;2023-03-01T06:57:38;102858.91;;;-2.85;100.00
62418;BME280;48456;54.242;10.280;2023-03-01T07:00:05;102866.78;;;-2.83;100.00
62418;BME280;48456;54.242;10.280;2023-03-01T07:02:31;102855.41;;;-2.85;100.00
62418;BME280;48456;54.242;10.280;2023-03-01T07:04:58;102860.31;;;-2.89;100.00
62418;BME280;48456;54.242;10.280;2023-03-01T07:07:24;102860.47;;;-2.77;100.00
62418;BME280;48456;54.242;10.280;2023-03-01T07:09:51;102860.97;;;-2.70;100.00
62418;BME280;48456;54.242;10.280;2023-03-01T07:12:17;102863.31;;;-2.63;100.00
62418;BME280;48456;54.242;10.280;2023-03-01T07:14:43;102859.41;;;-2.58;100.00
62418;BME280;48456;54.242;10.280;2023-03-01T07:17:10;102862.91;;;-2.57;100.00
62418;BME280;48456;54.242;10.280;2023-03-01T07:19:36;102863.28;;;-2.53;100.00
62418;BME280;48456;54.242;10.280;2023-03-01T07:22:03;102863.00;;;-2.56;100.00
62418;BME280;48456;54.242;10.280;2023-03-01T07:24:30;102866.66;;;-2.54;100.00
62418;BME280;48456;54.242;10.280;2023-03-01T07:26:56;102861.06;;;-2.58;100.00
62418;BME280;48456;54.242;10.280;2023-03-01T07:29:23;102866.66;;;-2.64;100.00
62418;BME280;48456;54.242;10.280;2023-03-01T07:31:49;102869.88;;;-2.67;100.00
62418;BME280;48456;54.242;10.280;2023-03-01T07:34:16;102870.16;;;-2.64;100.00
62418;BME280;48456;54.242;10.280;2023-03-01T07:36:42;102870.16;;;-2.53;100.00
62418;BME280;48456;54.242;10.280;2023-03-01T07:39:09;102874.16;;;-2.46;100.00
62418;BME280;48456;54.242;10.280;2023-03-01T07:41:36;102870.91;;;-2.44;100.00
62418;BME280;48456;54.242;10.280;2023-03-01T07:44:02;102883.84;;;-2.33;100.00
62418;BME280;48456;54.242;10.280;2023-03-01T07:46:28;102876.84;;;-2.35;100.00
62418;BME280;48456;54.242;10.280;2023-03-01T07:48:55;102880.31;;;-2.24;100.00
62418;BME280;48456;54.242;10.280;2023-03-01T07:51:22;102878.59;;;-2.13;100.00
62418;BME280;48456;54.242;10.280;2023-03-01T07:53:48;102880.72;;;-2.19;100.00
62418;BME280;48456;54.242;10.280;2023-03-01T07:56:15;102881.13;;;-2.35;100.00
62418;BME280;48456;54.242;10.280;2023-03-01T07:58:45;102880.88;;;-2.38;100.00
62418;BME280;48456;54.242;10.280;2023-03-01T08:01:16;102880.72;;;-2.29;100.00
62418;BME280;48456;54.242;10.280;2023-03-01T08:03:42;102884.84;;;-2.21;100.00
62418;BME280;48456;54.242;10.280;2023-03-01T08:06:10;102891.16;;;-2.07;100.00
62418;BME280;48456;54.242;10.280;2023-03-01T08:08:37;102897.63;;;-2.02;100.00
62418;BME280;48456;54.242;10.280;2023-03-01T08:11:04;102902.41;;;-1.96;100.00
62418;BME280;48456;54.242;10.280;2023-03-01T08:13:31;102895.50;;;-1.85;100.00
62418;BME280;48456;54.242;10.280;2023-03-01T08:16:01;102893.63;;;-1.76;100.00
62418;BME280;48456;54.242;10.280;2023-03-01T08:18:28;102893.09;;;-1.72;100.00
62418;BME280;48456;54.242;10.280;2023-03-01T08:20:55;102902.00;;;-1.58;100.00
62418;BME280;48456;54.242;10.280;2023-03-01T08:23:21;102892.75;;;-1.54;100.00
62418;BME280;48456;54.242;10.280;2023-03-01T08:25:47;102898.19;;;-1.51;100.00
62418;BME280;48456;54.242;10.280;2023-03-01T08:28:14;102893.06;;;-1.39;100.00
62418;BME280;48456;54.242;10.280;2023-03-01T08:30:40;102890.84;;;-1.34;100.00
62418;BME280;48456;54.242;10.280;2023-03-01T08:33:07;102895.41;;;-1.20;100.00
62418;BME280;48456;54.242;10.280;2023-03-01T08:35:33;102895.47;;;-1.08;100.00
62418;BME280;48456;54.242;10.280;2023-03-01T08:37:59;102891.91;;;-0.98;100.00
62418;BME280;48456;54.242;10.280;2023-03-01T08:40:26;102893.38;;;-0.89;100.00
62418;BME280;48456;54.242;10.280;2023-03-01T08:42:52;102901.19;;;-0.89;100.00
62418;BME280;48456;54.242;10.280;2023-03-01T08:45:19;102896.75;;;-0.90;100.00
62418;BME280;48456;54.242;10.280;2023-03-01T08:47:45;102899.72;;;-0.86;100.00
62418;BME280;48456;54.242;10.280;2023-03-01T08:50:11;102893.41;;;-0.77;100.00
62418;BME280;48456;54.242;10.280;2023-03-01T08:52:38;102901.34;;;-0.76;100.00
62418;BME280;48456;54.242;10.280;2023-03-01T08:55:04;102910.38;;;-0.71;100.00
62418;BME280;48456;54.242;10.280;2023-03-01T08:57:31;102903.81;;;-0.66;100.00
62418;BME280;48456;54.242;10.280;2023-03-01T08:59:57;102910.16;;;-0.62;100.00
62418;BME280;48456;54.242;10.280;2023-03-01T09:02:24;102909.28;;;-0.62;100.00
62418;BME280;48456;54.242;10.280;2023-03-01T09:04:50;102904.41;;;-0.58;100.00
62418;BME280;48456;54.242;10.280;2023-03-01T09:07:17;102907.78;;;-0.59;100.00
62418;BME280;48456;54.242;10.280;2023-03-01T09:09:43;102911.56;;;-0.55;100.00
62418;BME280;48456;54.242;10.280;2023-03-01T09:12:09;102909.03;;;-0.54;100.00
62418;BME280;48456;54.242;10.280;2023-03-01T09:14:36;102913.59;;;-0.51;100.00
62418;BME280;48456;54.242;10.280;2023-03-01T09:17:04;102914.41;;;-0.40;100.00
62418;BME280;48456;54.242;10.280;2023-03-01T09:19:33;102912.81;;;-0.38;100.00
62418;BME280;48456;54.242;10.280;2023-03-01T09:21:59;102910.31;;;-0.36;100.00
62418;BME280;48456;54.242;10.280;2023-03-01T09:24:26;102912.25;;;-0.22;100.00
62418;BME280;48456;54.242;10.280;2023-03-01T09:26:53;102910.56;;;-0.21;100.00
62418;BME280;48456;54.242;10.280;2023-03-01T09:29:19;102906.34;;;-0.19;100.00
62418;BME280;48456;54.242;10.280;2023-03-01T09:31:46;102906.47;;;-0.18;100.00
62418;BME280;48456;54.242;10.280;2023-03-01T09:34:12;102901.88;;;-0.10;100.00
62418;BME280;48456;54.242;10.280;2023-03-01T09:36:42;102893.59;;;-0.04;100.00
62418;BME280;48456;54.242;10.280;2023-03-01T09:39:08;102895.84;;;0.15;100.00
62418;BME280;48456;54.242;10.280;2023-03-01T09:41:42;102893.09;;;0.25;100.00
62418;BME280;48456;54.242;10.280;2023-03-01T09:44:19;102889.88;;;0.42;100.00
62418;BME280;48456;54.242;10.280;2023-03-01T09:46:47;102885.66;;;0.56;100.00
62418;BME280;48456;54.242;10.280;2023-03-01T09:49:20;102883.13;;;0.69;100.00
62418;BME280;48456;54.242;10.280;2023-03-01T09:51:55;102890.34;;;0.73;100.00
62418;BME280;48456;54.242;10.280;2023-03-01T09:54:22;102895.69;;;0.75;100.00
62418;BME280;48456;54.242;10.280;2023-03-01T09:57:06;102899.84;;;0.85;100.00
62418;BME280;48456;54.242;10.280;2023-03-01T09:59:36;102896.13;;;0.81;100.00
62418;BME280;48456;54.242;10.280;2023-03-01T10:04:47;102902.09;;;0.55;100.00
62418;BME280;48456;54.242;10.280;2023-03-01T10:09:44;102899.56;;;0.68;100.00
62418;BME280;48456;54.242;10.280;2023-03-01T10:12:12;102901.06;;;0.64;100.00
62418;BME280;48456;54.242;10.280;2023-03-01T10:17:20;102905.50;;;0.54;100.00
62418;BME280;48456;54.242;10.280;2023-03-01T10:19:50;102908.19;;;0.55;100.00
62418;BME280;48456;54.242;10.280;2023-03-01T10:22:24;102915.44;;;0.59;100.00
62418;BME280;48456;54.242;10.280;2023-03-01T10:24:54;102920.88;;;0.62;100.00
62418;BME280;48456;54.242;10.280;2023-03-01T10:32:13;102904.78;;;0.94;100.00
62418;BME280;48456;54.242;10.280;2023-03-01T10:34:40;102905.94;;;1.11;100.00
62418;BME280;48456;54.242;10.280;2023-03-01T10:37:12;102902.06;;;1.17;100.00
62418;BME280;48456;54.242;10.280;2023-03-01T10:39:53;102887.34;;;1.18;100.00
62418;BME280;48456;54.242;10.280;2023-03-01T10:42:30;102893.25;;;1.15;100.00
62418;BME280;48456;54.242;10.280;2023-03-01T10:44:58;102901.38;;;1.20;100.00
62418;BME280;48456;54.242;10.280;2023-03-01T10:47:40;102895.34;;;1.21;100.00
62418;BME280;48456;54.242;10.280;2023-03-01T10:50:17;102903.00;;;1.06;100.00
62418;BME280;48456;54.242;10.280;2023-03-01T10:52:55;102904.63;;;1.04;100.00
62418;BME280;48456;54.242;10.280;2023-03-01T10:58:08;102889.59;;;1.39;100.00
62418;BME280;48456;54.242;10.280;2023-03-01T11:00:45;102885.03;;;1.23;100.00
62418;BME280;48456;54.242;10.280;2023-03-01T11:03:13;102882.00;;;1.16;100.00
62418;BME280;48456;54.242;10.280;2023-03-01T11:06:00;102877.91;;;1.20;100.00
62418;BME280;48456;54.242;10.280;2023-03-01T11:08:45;102867.81;;;1.38;100.00
62418;BME280;48456;54.242;10.280;2023-03-01T11:13:52;102879.50;;;1.71;100.00
62418;BME280;48456;54.242;10.280;2023-03-01T11:16:22;102875.97;;;1.84;100.00
62418;BME280;48456;54.242;10.280;2023-03-01T11:18:56;102875.84;;;1.95;100.00
62418;BME280;48456;54.242;10.280;2023-03-01T11:21:24;102883.31;;;1.89;100.00
62418;BME280;48456;54.242;10.280;2023-03-01T11:23:51;102874.88;;;1.80;100.00
62418;BME280;48456;54.242;10.280;2023-03-01T11:26:18;102875.66;;;1.79;100.00
62418;BME280;48456;54.242;10.280;2023-03-01T11:28:47;102875.47;;;1.76;100.00
62418;BME280;48456;54.242;10.280;2023-03-01T11:31:15;102869.25;;;1.74;100.00
62418;BME280;48456;54.242;10.280;2023-03-01T11:33:56;102861.72;;;1.78;100.00
62418;BME280;48456;54.242;10.280;2023-03-01T11:38:50;102865.91;;;1.76;100.00
62418;BME280;48456;54.242;10.280;2023-03-01T11:41:18;102871.06;;;1.75;100.00
62418;BME280;48456;54.242;10.280;2023-03-01T11:44:02;102877.56;;;1.68;100.00
62418;BME280;48456;54.242;10.280;2023-03-01T11:49:12;102867.16;;;1.81;100.00
62418;BME280;48456;54.242;10.280;2023-03-01T11:57:01;102857.16;;;2.16;100.00
62418;BME280;48456;54.242;10.280;2023-03-01T12:07:05;102844.09;;;2.16;100.00
62418;BME280;48456;54.242;10.280;2023-03-01T12:09:48;102837.66;;;2.25;100.00
62418;BME280;48456;54.242;10.280;2023-03-01T12:12:24;102835.50;;;2.46;100.00
62418;BME280;48456;54.242;10.280;2023-03-01T12:17:46;102834.59;;;2.45;100.00
62418;BME280;48456;54.242;10.280;2023-03-01T12:20:30;102831.91;;;2.30;100.00
62418;BME280;48456;54.242;10.280;2023-03-01T12:31:01;102842.00;;;2.11;100.00
62418;BME280;48456;54.242;10.280;2023-03-01T12:46:28;102829.06;;;1.99;100.00
62418;BME280;48456;54.242;10.280;2023-03-01T12:51:29;102834.09;;;1.95;100.00
62418;BME280;48456;54.242;10.280;2023-03-01T12:53:57;102825.66;;;2.00;100.00
62418;BME280;48456;54.242;10.280;2023-03-01T12:56:28;102823.94;;;2.00;100.00
62418;BME280;48456;54.242;10.280;2023-03-01T12:59:02;102821.56;;;1.90;100.00
62418;BME280;48456;54.242;10.280;2023-03-01T13:15:16;102811.41;;;1.94;100.00
62418;BME280;48456;54.242;10.280;2023-03-01T13:17:50;102813.03;;;1.79;100.00
62418;BME280;48456;54.242;10.280;2023-03-01T13:20:19;102800.00;;;1.65;100.00
62418;BME280;48456;54.242;10.280;2023-03-01T13:22:46;102800.50;;;1.60;100.00
62418;BME280;48456;54.242;10.280;2023-03-01T13:25:20;102803.91;;;1.59;100.00
62418;BME280;48456;54.242;10.280;2023-03-01T13:27:50;102798.41;;;1.54;100.00
62418;BME280;48456;54.242;10.280;2023-03-01T13:30:50;102798.59;;;1.57;100.00
62418;BME280;48456;54.242;10.280;2023-03-01T13:35:54;102784.75;;;1.45;100.00
62418;BME280;48456;54.242;10.280;2023-03-01T13:41:07;102785.75;;;1.47;100.00
62418;BME280;48456;54.242;10.280;2023-03-01T13:43:37;102783.16;;;1.47;100.00
62418;BME280;48456;54.242;10.280;2023-03-01T13:46:22;102789.97;;;1.45;100.00
62418;BME280;48456;54.242;10.280;2023-03-01T13:48:50;102786.25;;;1.41;100.00
62418;BME280;48456;54.242;10.280;2023-03-01T13:51:20;102783.97;;;1.32;100.00
62418;BME280;48456;54.242;10.280;2023-03-01T13:53:49;102784.97;;;1.34;100.00
62418;BME280;48456;54.242;10.280;2023-03-01T13:56:24;102787.56;;;1.21;100.00
62418;BME280;48456;54.242;10.280;2023-03-01T13:58:58;102783.94;;;1.19;100.00
62418;BME280;48456;54.242;10.280;2023-03-01T14:01:32;102779.25;;;1.26;100.00
62418;BME280;48456;54.242;10.280;2023-03-01T14:04:00;102777.03;;;1.33;100.00
62418;BME280;48456;54.242;10.280;2023-03-01T14:06:28;102768.81;;;1.40;100.00
62418;BME280;48456;54.242;10.280;2023-03-01T14:09:01;102771.72;;;1.45;100.00